Macomb, IL

5:47 AM CDT on October 24, 2014 (GMT -0500)
Burlington Regional | Change Station
CLOSE
Current Station
Airport
Location: Burlington,
Elevation: 696 ft
Nearby Weather Stations

Elev 696 ft 40.78 °N, 91.13 °W | Updated 17 minutes ago

Fog
Fog
53 °F
Feels Like 53 °F
N
0
Wind Variable Wind from North

Today
High -- | Low -- °F
--% Chance of Precip.
Yesterday
High -- | Low -- °F
Precip. -- in
7:23 AM 6:09 PM
New Moon, 0% visible
Pressure 30.05 in
Visibility 0.2 miles
Clouds
Dew Point 53 °F
Humidity 100%
Rainfall 0.00 in
Snow Depth Not available.
UV Not available.
Pollen .30 out of 12
Air Quality Not available.
Flu Activity No Activity
SPECI KBRL 241030Z AUTO 00000KT 1/4SM FG VV002 12/12 A3005 RMK AO2 T01170117

More Conditions Fewer Conditions

Pressure 30.05 in
Visibility 0.2 miles
Clouds
Dew Point 53 °F
Humidity 100%
Rainfall 0.00 in
Snow Depth Not available.
UV Not available.
Pollen .30 out of 12
Air Quality Not available.
Flu Activity No Activity
SPECI KBRL 241030Z AUTO 00000KT 1/4SM FG VV002 12/12 A3005 RMK AO2 T01170117

More Conditions Fewer Conditions

10-Day Weather Forecast

Almanac

Astronomy

Oct. 24, 2014 Rise Set
Actual Time 7:23 AM CDT 6:09 PM CDT
Civil Twilight 6:55 AM CDT 6:37 PM CDT
Nautical Twilight 6:23 AM CDT 7:09 PM CDT
Astronomical Twilight 5:52 AM CDT 7:40 PM CDT
Moon 8:02 AM CDT 6:49 PM CDT
Length of Visible Light 11h 41m
Length of Day
10h 46m
Tomorrow will be 2m 28s shorter.
New Moon, 0% of the Moon is Illuminated
Today
New Moon
Oct 30
First Quarter
Nov 6
Full
Nov 14
Last Quarter
Nov 22
New

Today's Extremes

State Highs State Lows

Community

WunderPhotos

Upload Photos

1,764,516 photos uploaded!

WunderBlogs® & News

Nearby

Snow Depth

Station Depth Elevation
No new snow has been reported.

Earthquake Activity

City Distance Mag. Time & Date
No recent earthquake activity has been reported nearby.
Minimum magnitude displayed is 2.5.

Coastal Water Temperatures

Place Temperature
No Stations Reporting

Nearby Weather Stations